Time;durP1;ratioP1;P1;durP2;ratioP2;P2;SDS_P1;SDS_P2;PMS_P1;PMS_P2;Temp;Humidity;BMP_temperature;BMP_pressure;BME280_temperature;BME280_humidity;BME280_pressure;Samples;Min_cycle;Max_cycle;Signal;HPM_P1;HPM_P2
2022/06/15 00:00:13;;;;;;;4.70;1.20;;;;;;;18.07;65.54;99145.95;31440;1319;3026255;-61
2022/06/15 00:02:43;;;;;;;9.10;1.80;;;;;;;18.68;64.88;99130.30;24935;1322;3026720;-60
2022/06/15 00:05:12;;;;;;;5.70;1.60;;;;;;;18.62;65.52;99136.55;24903;1321;3027141;-60
2022/06/15 00:07:41;;;;;;;8.00;1.70;;;;;;;18.18;67.74;99137.63;25062;1318;3026707;-62
2022/06/15 00:10:12;;;;;;;3.80;1.30;;;;;;;17.86;69.59;99157.48;24978;1318;3054907;-60
2022/06/15 00:12:41;;;;;;;6.00;1.60;;;;;;;17.80;69.87;99185.89;24843;1318;3298011;-60
2022/06/15 00:15:10;;;;;;;10.60;1.50;;;;;;;17.70;70.83;99194.83;25033;1315;3050584;-58
2022/06/15 00:17:42;;;;;;;6.90;1.40;;;;;;;18.04;70.04;99191.84;25048;1314;3026998;-60
2022/06/15 00:20:12;;;;;;;4.80;1.20;;;;;;;18.37;68.83;99183.52;25034;1314;3026804;-62
2022/06/15 00:22:43;;;;;;;8.00;1.40;;;;;;;18.53;67.96;99194.33;25076;1315;3026401;-59
2022/06/15 00:25:13;;;;;;;2.90;1.40;;;;;;;18.29;68.57;99216.83;25037;1315;3026856;-61
2022/06/15 00:27:43;;;;;;;5.80;1.30;;;;;;;18.18;70.44;99229.78;25015;1315;3053278;-59
2022/06/15 00:30:13;;;;;;;4.70;1.50;;;;;;;18.16;69.89;99239.96;25087;1315;3026116;-59
2022/06/15 00:32:44;;;;;;;4.00;1.20;;;;;;;18.08;69.33;99246.68;25051;1319;3026961;-59
2022/06/15 00:35:15;;;;;;;2.20;0.90;;;;;;;18.41;68.10;99259.67;25075;1315;3026132;-60
2022/06/15 00:37:45;;;;;;;7.10;1.60;;;;;;;18.24;68.15;99281.00;25053;1320;3058558;-59
2022/06/15 00:40:13;;;;;;;3.00;1.70;;;;;;;17.97;69.79;99271.33;24936;1314;3026574;-60
2022/06/15 00:42:42;;;;;;;2.10;1.10;;;;;;;17.93;68.99;99254.38;25006;1314;3053284;-56
2022/06/15 00:45:12;;;;;;;5.10;1.50;;;;;;;17.36;70.56;99219.98;24976;1314;3026422;-59
2022/06/15 00:47:42;;;;;;;1.90;1.40;;;;;;;17.11;71.97;99175.86;25028;1314;3052240;-59
2022/06/15 00:50:22;;;;;;;3.80;1.30;;;;;;;16.90;73.33;99149.14;24978;1318;3026962;-59
2022/06/15 00:52:56;;;;;;;4.30;1.30;;;;;;;17.23;72.16;99140.92;25033;1315;3057427;-59
2022/06/15 00:55:28;;;;;;;4.10;1.20;;;;;;;17.53;70.96;99141.13;25031;1314;3049410;-59
2022/06/15 00:57:58;;;;;;;2.00;1.50;;;;;;;17.31;71.97;99153.98;25005;1317;3028552;-58
2022/06/15 01:00:28;;;;;;;4.90;1.50;;;;;;;16.70;74.66;99150.42;25001;1318;3026587;-59
2022/06/15 01:02:58;;;;;;;4.00;1.30;;;;;;;16.11;76.77;99138.36;24977;1317;3026965;-59
2022/06/15 01:05:39;;;;;;;3.60;1.50;;;;;;;15.93;77.69;99134.83;25044;1315;3026240;-59
2022/06/15 01:08:12;;;;;;;2.60;1.40;;;;;;;16.17;76.80;99135.50;25083;1317;3050385;-60
2022/06/15 01:11:08;;;;;;;2.40;1.70;;;;;;;16.22;76.88;99137.16;25044;1318;3069852;-59
2022/06/15 01:13:59;;;;;;;5.10;1.50;;;;;;;16.24;76.67;99159.50;25028;1315;3051640;-61
2022/06/15 01:16:47;;;;;;;3.20;1.80;;;;;;;16.03;77.58;99170.70;24986;1316;3054180;-58
2022/06/15 01:19:28;;;;;;;4.00;1.80;;;;;;;16.03;77.97;99187.43;25032;1315;3052745;-60
2022/06/15 01:21:58;;;;;;;3.30;1.30;;;;;;;16.47;76.83;99190.48;25000;1314;3059088;-59
2022/06/15 01:24:51;;;;;;;3.70;1.70;;;;;;;16.69;75.42;99185.51;24987;1317;3025842;-58
2022/06/15 01:27:24;;;;;;;3.50;1.50;;;;;;;16.44;76.19;99190.52;25030;1315;3052704;-58
2022/06/15 01:30:33;;;;;;;3.30;1.60;;;;;;;16.48;76.21;99190.04;25100;1315;3057157;-58
2022/06/15 01:33:17;;;;;;;5.00;1.40;;;;;;;16.38;75.93;99188.48;25057;1317;3052951;-60
2022/06/15 01:36:03;;;;;;;4.50;1.20;;;;;;;16.38;75.97;99191.77;25014;1315;3055150;-59
2022/06/15 01:39:07;;;;;;;4.50;1.40;;;;;;;17.06;74.38;99190.52;25068;1316;3049697;-59
2022/06/15 01:41:48;;;;;;;2.60;1.30;;;;;;;17.39;72.38;99192.41;24925;1316;3071805;-60
2022/06/15 01:44:25;;;;;;;2.50;1.60;;;;;;;17.43;72.36;99194.86;25089;1314;3052112;-59
2022/06/15 01:46:56;;;;;;;2.00;1.20;;;;;;;17.15;73.27;99202.21;25012;1314;3055032;-57
2022/06/15 01:49:37;;;;;;;3.00;1.90;;;;;;;16.97;73.61;99203.11;25004;1317;3027394;-60
2022/06/15 01:52:08;;;;;;;4.20;1.50;;;;;;;16.69;74.62;99198.60;24970;1315;3049308;-59
2022/06/15 01:54:42;;;;;;;3.40;1.40;;;;;;;17.25;72.67;99193.48;24994;1321;3029089;-58
2022/06/15 01:57:12;;;;;;;4.50;1.50;;;;;;;17.50;71.54;99204.15;25017;1314;3026978;-60
2022/06/15 02:00:03;;;;;;;3.20;1.70;;;;;;;17.35;71.91;99210.77;24981;1314;3027694;-60
2022/06/15 02:02:42;;;;;;;4.60;1.60;;;;;;;17.20;72.76;99206.73;25087;1314;3049758;-60
2022/06/15 02:05:32;;;;;;;2.50;1.70;;;;;;;17.03;73.62;99208.94;25004;1318;3056463;-61
2022/06/15 02:08:28;;;;;;;2.80;1.70;;;;;;;16.95;74.09;99204.80;25031;1314;3050208;-59
2022/06/15 02:11:09;;;;;;;2.80;1.20;;;;;;;17.43;72.90;99209.52;24943;1318;3071993;-59
2022/06/15 02:13:49;;;;;;;5.00;2.00;;;;;;;17.56;71.91;99205.31;25026;1315;3051172;-60
2022/06/15 02:16:21;;;;;;;1.70;1.40;;;;;;;17.39;72.25;99205.83;25057;1317;3055139;-58
2022/06/15 02:18:54;;;;;;;4.10;1.70;;;;;;;17.24;73.11;99211.11;24929;1315;3055040;-60
2022/06/15 02:21:26;;;;;;;2.80;1.80;;;;;;;17.01;74.25;99208.67;24921;1319;3026317;-60
2022/06/15 02:23:58;;;;;;;5.40;1.40;;;;;;;17.08;73.98;99210.66;24954;1317;3026783;-60
2022/06/15 02:26:33;;;;;;;4.70;2.10;;;;;;;17.45;72.75;99207.60;25079;1315;3027414;-60
2022/06/15 02:29:12;;;;;;;7.70;1.70;;;;;;;17.77;71.62;99209.23;25075;1315;3055043;-60
2022/06/15 02:31:46;;;;;;;2.30;1.50;;;;;;;17.66;71.92;99211.77;24949;1318;3071865;-58
2022/06/15 02:34:16;;;;;;;4.70;1.80;;;;;;;17.55;72.04;99213.77;25031;1314;3026142;-59
2022/06/15 02:36:46;;;;;;;4.20;1.50;;;;;;;17.39;72.52;99211.30;25050;1315;3026975;-59
2022/06/15 02:39:16;;;;;;;7.70;2.30;;;;;;;17.17;73.39;99214.92;25067;1314;3026494;-60
2022/06/15 02:41:47;;;;;;;3.10;1.50;;;;;;;16.90;74.66;99214.95;25104;1315;3026958;-58
2022/06/15 02:44:19;;;;;;;3.50;1.60;;;;;;;17.47;72.93;99214.47;24998;1317;3026652;-58
2022/06/15 02:46:48;;;;;;;3.40;1.60;;;;;;;17.79;71.24;99216.27;25033;1317;3052141;-60
2022/06/15 02:49:17;;;;;;;7.10;2.00;;;;;;;17.72;71.48;99212.64;24913;1315;3026812;-62
2022/06/15 02:51:56;;;;;;;4.10;2.20;;;;;;;17.45;72.02;99214.35;25027;1315;3054047;-61
2022/06/15 02:54:37;;;;;;;6.80;2.40;;;;;;;17.31;72.51;99212.91;25020;1317;3055512;-60
2022/06/15 02:57:16;;;;;;;2.80;1.80;;;;;;;17.03;73.59;99211.80;25068;1314;3059591;-59
2022/06/15 02:59:46;;;;;;;3.30;1.20;;;;;;;16.86;74.23;99211.20;25025;1317;3026378;-58
2022/06/15 03:02:16;;;;;;;5.10;1.70;;;;;;;17.35;72.86;99215.55;25030;1314;3026608;-58
2022/06/15 03:04:46;;;;;;;4.70;1.60;;;;;;;17.60;71.19;99210.80;25039;1317;3026990;-58
2022/06/15 03:07:20;;;;;;;3.50;1.80;;;;;;;17.58;71.22;99215.06;25009;1316;3029548;-60
2022/06/15 03:09:49;;;;;;;4.70;1.80;;;;;;;17.38;71.74;99213.35;24956;1317;3026337;-59
2022/06/15 03:12:20;;;;;;;4.10;1.70;;;;;;;17.12;72.31;99217.38;25002;1319;3027677;-60
2022/06/15 03:14:49;;;;;;;5.10;1.70;;;;;;;17.07;72.81;99223.52;24990;1317;3026772;-60
2022/06/15 03:17:20;;;;;;;4.10;1.30;;;;;;;17.03;73.10;99223.25;25102;1314;3027133;-58
2022/06/15 03:19:57;;;;;;;3.40;1.50;;;;;;;17.64;70.99;99221.02;25076;1315;3049710;-60
2022/06/15 03:22:26;;;;;;;2.10;1.60;;;;;;;18.05;69.68;99223.29;25106;1314;3026877;-61
2022/06/15 03:24:58;;;;;;;4.10;1.40;;;;;;;18.01;68.97;99225.78;25066;1316;3026484;-59
2022/06/15 03:27:28;;;;;;;3.00;1.90;;;;;;;17.92;69.34;99228.55;24967;1315;3026590;-61
2022/06/15 03:29:58;;;;;;;3.50;1.60;;;;;;;17.69;69.55;99230.49;25046;1314;3055075;-58
2022/06/15 03:32:28;;;;;;;5.60;1.60;;;;;;;17.39;70.24;99231.54;25076;1317;3027060;-57
2022/06/15 03:35:01;;;;;;;4.00;1.60;;;;;;;17.34;70.25;99236.71;25064;1315;3027080;-58
2022/06/15 03:37:33;;;;;;;2.80;1.20;;;;;;;17.37;70.47;99233.98;25082;1316;3027034;-60
2022/06/15 03:40:16;;;;;;;1.90;1.40;;;;;;;17.94;68.05;99240.23;25056;1314;3055435;-61
2022/06/15 03:42:48;;;;;;;1.40;1.10;;;;;;;18.34;66.34;99230.91;25062;1314;3030512;-61
2022/06/15 03:45:19;;;;;;;2.90;1.70;;;;;;;18.33;65.94;99236.88;25055;1314;3026949;-62
2022/06/15 03:47:48;;;;;;;4.60;1.30;;;;;;;18.24;66.20;99233.11;24998;1315;3026583;-59
2022/06/15 03:50:17;;;;;;;3.30;1.60;;;;;;;18.11;66.16;99236.52;25049;1314;3054958;-60
2022/06/15 03:52:47;;;;;;;2.80;1.60;;;;;;;17.78;67.10;99237.98;25036;1314;3026978;-58
2022/06/15 03:55:18;;;;;;;2.20;1.60;;;;;;;17.75;67.54;99246.58;25048;1314;3026789;-60
2022/06/15 03:57:50;;;;;;;2.10;1.60;;;;;;;17.60;67.90;99249.73;25068;1314;3027143;-61
2022/06/15 04:00:20;;;;;;;4.50;1.50;;;;;;;17.47;68.32;99253.05;25001;1317;3027924;-59
2022/06/15 04:02:53;;;;;;;2.20;1.30;;;;;;;17.48;68.39;99262.02;25109;1314;3026779;-59
2022/06/15 04:05:49;;;;;;;2.80;1.70;;;;;;;18.01;66.94;99261.51;25019;1318;3052136;-58
2022/06/15 04:08:35;;;;;;;2.80;1.30;;;;;;;18.33;65.60;99264.89;25010;1318;3052046;-59
2022/06/15 04:14:06;;;;;;;2.40;1.60;;;;;;;18.21;65.37;99266.36;25035;1317;3056969;-58
2022/06/15 04:16:38;;;;;;;2.90;1.40;;;;;;;18.20;65.69;99271.83;25138;1314;3049847;-59
2022/06/15 04:19:11;;;;;;;2.60;1.30;;;;;;;18.01;65.34;99280.52;25035;1317;3026536;-59
2022/06/15 04:21:43;;;;;;;7.50;1.50;;;;;;;18.01;65.12;99277.27;25040;1315;3055048;-60
2022/06/15 04:24:13;;;;;;;7.50;1.40;;;;;;;17.97;64.41;99274.52;25029;1314;3027689;-60
2022/06/15 04:26:44;;;;;;;3.20;1.50;;;;;;;17.94;64.34;99277.78;25057;1315;3052232;-58
2022/06/15 04:29:17;;;;;;;;;;;;;;;17.91;64.64;99282.13;25060;1314;3051690;-58
2022/06/15 04:31:48;;;;;;;4.10;1.70;;;;;;;17.88;64.54;99283.26;25049;1314;3026077;-59
2022/06/15 04:34:18;;;;;;;5.30;2.00;;;;;;;17.92;64.71;99282.97;25091;1314;3026972;-58
2022/06/15 04:36:48;;;;;;;3.90;1.50;;;;;;;17.99;64.35;99286.92;25048;1314;3027160;-59
2022/06/15 04:39:18;;;;;;;2.70;1.40;;;;;;;18.02;64.39;99284.14;25034;1318;3026851;-59
2022/06/15 04:41:48;;;;;;;3.00;1.30;;;;;;;17.88;64.36;99288.98;25082;1314;3026890;-59
2022/06/15 04:44:18;;;;;;;1.90;1.60;;;;;;;17.85;64.73;99296.83;25032;1314;3028357;-58
2022/06/15 04:46:50;;;;;;;8.00;2.00;;;;;;;17.83;64.98;99290.45;25033;1314;3026747;-61
2022/06/15 04:49:19;;;;;;;7.20;1.30;;;;;;;17.93;65.13;99292.39;24993;1317;3026544;-60
2022/06/15 04:51:53;;;;;;;1.50;1.30;;;;;;;18.41;64.02;99297.92;25046;1314;3027633;-60
2022/06/15 04:54:23;;;;;;;3.60;1.50;;;;;;;19.14;62.38;99294.65;25058;1314;3027004;-60
2022/06/15 04:56:55;;;;;;;4.80;1.50;;;;;;;19.30;61.50;99290.76;25008;1314;3026158;-60
2022/06/15 04:59:25;;;;;;;3.80;1.40;;;;;;;19.29;61.36;99289.48;25060;1318;3027367;-59
2022/06/15 05:01:55;;;;;;;3.70;1.90;;;;;;;19.10;61.80;99296.08;25047;1314;3026998;-61
2022/06/15 05:04:26;;;;;;;3.00;1.40;;;;;;;19.03;62.06;99303.36;25017;1315;3055004;-59
2022/06/15 05:06:55;;;;;;;5.80;1.50;;;;;;;19.00;62.25;99302.37;25087;1314;3026152;-60
2022/06/15 05:09:24;;;;;;;5.50;1.80;;;;;;;18.74;62.73;99305.10;25037;1318;3026418;-59
2022/06/15 05:11:55;;;;;;;4.10;1.70;;;;;;;18.46;62.94;99306.38;25122;1314;3054248;-58
2022/06/15 05:14:24;;;;;;;4.90;1.70;;;;;;;18.37;63.16;99314.50;25040;1315;3027004;-58
2022/06/15 05:16:53;;;;;;;3.90;1.70;;;;;;;18.40;62.50;99309.06;25032;1314;3051472;-62
2022/06/15 05:19:28;;;;;;;4.80;1.90;;;;;;;18.39;62.51;99309.16;25044;1315;3054728;-59
2022/06/15 05:21:58;;;;;;;4.40;1.90;;;;;;;18.30;63.84;99313.40;25104;1315;3026515;-60
2022/06/15 05:24:28;;;;;;;3.40;2.10;;;;;;;18.32;63.73;99311.10;25112;1314;3026055;-60
2022/06/15 05:27:02;;;;;;;2.50;1.80;;;;;;;18.30;63.89;99313.02;25018;1315;3026678;-62
2022/06/15 05:29:31;;;;;;;5.70;2.10;;;;;;;18.53;62.79;99309.39;25032;1317;3026479;-60
2022/06/15 05:32:10;;;;;;;10.30;2.00;;;;;;;18.67;62.61;99313.71;25078;1314;3054324;-62
2022/06/15 05:34:40;;;;;;;3.10;2.10;;;;;;;18.61;62.85;99317.52;25033;1314;3026694;-59
2022/06/15 05:37:09;;;;;;;4.10;1.70;;;;;;;18.60;61.81;99315.29;25049;1314;3026894;-60
2022/06/15 05:39:40;;;;;;;6.50;2.00;;;;;;;18.55;60.97;99324.33;25034;1318;3026798;-61
2022/06/15 05:42:09;;;;;;;5.50;1.80;;;;;;;18.57;61.36;99315.23;25002;1317;3027118;-60
2022/06/15 05:47:11;;;;;;;6.40;1.80;;;;;;;18.49;61.34;99322.42;25050;1317;3028342;-60
2022/06/15 05:49:59;;;;;;;9.30;2.30;;;;;;;18.39;60.18;99321.23;25112;1314;3052648;-59
2022/06/15 05:52:35;;;;;;;5.50;2.10;;;;;;;18.46;60.13;99317.77;25087;1314;3057260;-59
2022/06/15 05:55:05;;;;;;;8.60;1.90;;;;;;;18.40;59.91;99314.88;24997;1318;3026435;-59
2022/06/15 05:57:34;;;;;;;5.30;2.00;;;;;;;18.56;59.96;99311.59;25030;1317;3054849;-60
2022/06/15 06:00:05;;;;;;;3.40;2.30;;;;;;;18.76;59.89;99309.34;25043;1314;3026711;-58
2022/06/15 06:02:42;;;;;;;5.30;2.00;;;;;;;18.81;59.08;99316.68;25077;1317;3050411;-61
2022/06/15 06:05:12;;;;;;;4.40;2.20;;;;;;;18.82;58.41;99315.17;25038;1315;3026267;-59
2022/06/15 06:07:44;;;;;;;5.90;1.70;;;;;;;18.93;57.49;99315.19;25031;1317;3027404;-60
2022/06/15 06:10:13;;;;;;;5.70;1.80;;;;;;;19.04;56.88;99314.98;25037;1317;3026922;-58
2022/06/15 06:12:47;;;;;;;4.30;2.50;;;;;;;19.12;56.54;99320.98;25096;1314;3056202;-59
2022/06/15 06:15:17;;;;;;;8.20;1.90;;;;;;;19.33;56.56;99318.66;25069;1316;3026577;-62
2022/06/15 06:17:47;;;;;;;5.50;2.10;;;;;;;19.55;56.50;99317.00;25094;1317;3026663;-61
2022/06/15 06:20:16;;;;;;;7.20;2.00;;;;;;;19.64;57.05;99322.34;25080;1317;3027031;-60
2022/06/15 06:22:45;;;;;;;5.80;2.00;;;;;;;19.71;55.93;99332.80;25023;1317;3026501;-60
2022/06/15 06:25:14;;;;;;;4.50;1.90;;;;;;;19.75;55.70;99330.30;25097;1314;3026974;-60
2022/06/15 06:27:43;;;;;;;4.00;1.80;;;;;;;19.68;55.46;99341.45;25026;1315;3050608;-59
2022/06/15 06:30:12;;;;;;;7.10;2.10;;;;;;;19.64;55.24;99344.42;25072;1318;3026641;-60
2022/06/15 06:32:42;;;;;;;5.70;2.10;;;;;;;19.77;54.51;99347.69;25035;1315;3071382;-59
2022/06/15 06:35:12;;;;;;;4.00;2.20;;;;;;;19.91;53.00;99347.71;24945;1317;3026261;-61
2022/06/15 06:37:41;;;;;;;3.80;1.70;;;;;;;19.75;52.11;99351.30;25017;1314;3026563;-62
2022/06/15 06:40:13;;;;;;;3.30;1.80;;;;;;;19.68;52.43;99354.98;25025;1318;3069239;-61
2022/06/15 06:42:42;;;;;;;8.20;2.00;;;;;;;19.45;52.46;99365.30;24977;1317;3027087;-60
2022/06/15 06:45:11;;;;;;;5.90;1.70;;;;;;;19.30;52.99;99363.20;25060;1314;3029208;-61
2022/06/15 06:47:41;;;;;;;2.00;1.70;;;;;;;19.33;52.50;99372.67;25137;1315;3026698;-60
2022/06/15 06:50:10;;;;;;;5.30;1.70;;;;;;;19.46;52.71;99359.52;25116;1314;3051605;-60
2022/06/15 06:52:41;;;;;;;4.00;1.70;;;;;;;19.69;51.84;99362.14;25037;1314;3028671;-60
2022/06/15 06:55:10;;;;;;;3.80;1.80;;;;;;;19.82;50.23;99351.83;25078;1314;3026747;-59
2022/06/15 06:57:40;;;;;;;5.60;1.80;;;;;;;20.00;50.04;99355.38;25107;1315;3027374;-63
2022/06/15 07:00:11;;;;;;;5.70;1.70;;;;;;;20.09;50.11;99352.08;25078;1317;3026531;-60
2022/06/15 07:02:40;;;;;;;5.70;1.50;;;;;;;20.23;49.72;99348.20;25053;1317;3026548;-62
2022/06/15 07:05:10;;;;;;;8.50;1.90;;;;;;;20.33;49.42;99337.21;25070;1314;3027469;-61
2022/06/15 07:07:39;;;;;;;5.20;1.80;;;;;;;20.42;48.70;99341.41;25017;1314;3026114;-61
2022/06/15 07:10:09;;;;;;;4.80;1.70;;;;;;;20.15;48.91;99355.41;25070;1315;3055104;-60
2022/06/15 07:12:38;;;;;;;7.60;1.80;;;;;;;19.89;49.04;99353.83;25043;1314;3026463;-60
2022/06/15 07:15:08;;;;;;;5.40;1.60;;;;;;;19.95;48.78;99358.38;25055;1317;3027293;-62
2022/06/15 07:17:38;;;;;;;4.90;1.60;;;;;;;19.97;48.70;99366.34;25026;1318;3026411;-60
2022/06/15 07:20:07;;;;;;;6.90;1.80;;;;;;;19.96;48.93;99362.90;25098;1315;3026845;-59
2022/06/15 07:22:37;;;;;;;4.30;1.50;;;;;;;20.02;48.65;99359.12;25066;1315;3068898;-59
2022/06/15 07:25:06;;;;;;;7.00;1.90;;;;;;;20.18;48.48;99356.96;25041;1314;3026397;-60
2022/06/15 07:27:36;;;;;;;3.80;1.70;;;;;;;20.22;48.37;99359.71;25028;1314;3054629;-60
2022/06/15 07:30:07;;;;;;;5.90;1.90;;;;;;;20.07;47.52;99362.08;25007;1315;3027770;-61
2022/06/15 07:32:38;;;;;;;3.70;1.40;;;;;;;20.01;47.14;99359.90;25030;1314;3026637;-60
2022/06/15 07:35:13;;;;;;;4.90;1.80;;;;;;;20.17;46.76;99363.95;25055;1314;3026236;-60
2022/06/15 07:37:42;;;;;;;6.20;1.90;;;;;;;20.37;45.90;99362.38;25118;1314;3052645;-60
2022/06/15 07:40:12;;;;;;;2.10;1.30;;;;;;;20.53;45.86;99357.38;25031;1315;3026108;-59
2022/06/15 07:42:45;;;;;;;3.10;1.70;;;;;;;20.40;45.47;99359.15;25123;1314;3052054;-60
2022/06/15 07:45:15;;;;;;;5.70;1.20;;;;;;;20.63;46.00;99356.02;25046;1314;3026678;-61
2022/06/15 07:50:32;;;;;;;4.70;1.40;;;;;;;20.20;43.41;99368.45;25000;1317;3052269;-60
2022/06/15 07:53:04;;;;;;;5.00;1.50;;;;;;;20.13;44.39;99368.77;25118;1314;3026856;-60
2022/06/15 07:55:35;;;;;;;5.60;1.60;;;;;;;20.09;44.66;99365.79;25057;1314;3026444;-61
2022/06/15 07:58:04;;;;;;;6.60;1.70;;;;;;;20.25;44.63;99355.15;25019;1314;3027641;-59
2022/06/15 08:00:37;;;;;;;6.00;1.40;;;;;;;20.49;43.70;99359.89;25009;1314;3026529;-60
2022/06/15 08:03:06;;;;;;;5.20;1.60;;;;;;;20.65;43.34;99357.37;25103;1315;3026702;-61
2022/06/15 08:05:39;;;;;;;3.40;1.50;;;;;;;20.73;43.45;99346.27;25039;1314;3027151;-59
2022/06/15 08:08:10;;;;;;;5.90;1.30;;;;;;;20.95;42.99;99354.65;25014;1313;3026840;-62
2022/06/15 08:10:42;;;;;;;4.40;1.30;;;;;;;21.06;42.22;99353.31;24970;1314;3051696;-60
2022/06/15 08:13:13;;;;;;;4.50;1.60;;;;;;;21.21;42.14;99350.61;25100;1314;3026821;-60
2022/06/15 08:15:43;;;;;;;4.30;1.40;;;;;;;21.27;42.22;99356.77;24955;1317;3026952;-60
2022/06/15 08:18:15;;;;;;;2.80;1.40;;;;;;;21.36;41.58;99356.57;25089;1314;3048858;-57
2022/06/15 08:20:50;;;;;;;9.40;2.10;;;;;;;21.17;41.07;99356.40;25011;1315;3027313;-58
2022/06/15 08:23:21;;;;;;;4.50;1.30;;;;;;;20.72;41.30;99359.88;24995;1314;3051602;-60
2022/06/15 08:25:52;;;;;;;7.60;1.60;;;;;;;20.72;41.04;99359.38;25060;1315;3026647;-60
2022/06/15 08:28:26;;;;;;;6.00;1.30;;;;;;;20.80;40.81;99357.63;25035;1314;3026708;-61
2022/06/15 08:30:56;;;;;;;5.30;1.80;;;;;;;20.78;40.46;99369.09;25049;1314;3028531;-60
2022/06/15 08:33:25;;;;;;;4.50;1.50;;;;;;;20.84;40.81;99356.83;25092;1317;3026934;-61
2022/06/15 08:35:55;;;;;;;4.40;1.50;;;;;;;21.21;40.49;99359.85;25067;1314;3026408;-60
2022/06/15 08:38:25;;;;;;;5.40;1.70;;;;;;;21.40;39.79;99359.64;25076;1314;3026920;-59
2022/06/15 08:41:06;;;;;;;5.00;1.30;;;;;;;21.62;39.43;99359.47;25075;1316;3027223;-60
2022/06/15 08:44:00;;;;;;;5.00;1.40;;;;;;;21.62;38.14;99368.48;25062;1314;3051217;-63
2022/06/15 08:46:36;;;;;;;4.70;1.40;;;;;;;21.47;38.41;99363.23;24974;1317;3069682;-59
2022/06/15 08:49:40;;;;;;;9.00;1.70;;;;;;;21.60;38.24;99368.77;25068;1317;3049132;-65
2022/06/15 08:52:18;;;;;;;4.30;1.40;;;;;;;21.65;38.59;99358.73;25000;1317;3052705;-64
2022/06/15 08:54:51;;;;;;;7.70;1.50;;;;;;;21.91;38.73;99355.05;25015;1314;3052267;-61
2022/06/15 08:57:25;;;;;;;3.60;1.50;;;;;;;21.88;38.06;99353.36;25004;1317;3026806;-61
2022/06/15 08:59:58;;;;;;;4.50;1.40;;;;;;;21.59;37.93;99362.32;25084;1314;3051087;-62
2022/06/15 09:02:37;;;;;;;6.50;1.60;;;;;;;21.48;38.50;99363.45;25065;1317;3052842;-63
2022/06/15 09:05:30;;;;;;;4.20;1.50;;;;;;;21.75;38.37;99359.64;25218;1314;3051852;-61
2022/06/15 09:08:09;;;;;;;3.40;1.20;;;;;;;21.56;38.16;99364.88;25028;1314;3069813;-61
2022/06/15 09:11:01;;;;;;;3.90;1.20;;;;;;;21.32;38.62;99359.50;25060;1314;3049331;-61
2022/06/15 09:13:43;;;;;;;;;;;;;;;21.45;38.21;99367.87;25050;1316;3055233;-60
2022/06/15 09:16:22;;;;;;;3.40;1.30;;;;;;;21.60;37.91;99363.05;24929;1317;3052489;-61
2022/06/15 09:19:18;;;;;;;9.70;1.30;;;;;;;21.52;37.41;99360.86;25098;1314;3056486;-58
2022/06/15 09:21:52;;;;;;;2.90;1.20;;;;;;;21.73;37.40;99357.94;25029;1316;3052396;-58
2022/06/15 09:24:34;;;;;;;8.40;2.20;;;;;;;22.04;37.28;99349.54;25052;1317;3028584;-61
2022/06/15 09:27:07;;;;;;;6.10;1.00;;;;;;;22.18;36.36;99350.67;25125;1316;3054336;-62
2022/06/15 09:29:47;;;;;;;3.80;1.30;;;;;;;22.08;35.97;99354.73;25003;1317;3026668;-58
2022/06/15 09:32:23;;;;;;;5.10;1.30;;;;;;;22.18;35.97;99348.70;25039;1315;3049969;-61
2022/06/15 09:35:12;;;;;;;8.10;1.50;;;;;;;22.54;35.00;99350.23;25002;1315;3054366;-60
2022/06/15 09:37:42;;;;;;;5.40;1.30;;;;;;;22.66;33.70;99349.92;25103;1315;3055777;-60
2022/06/15 09:40:12;;;;;;;6.50;1.60;;;;;;;22.69;34.11;99354.05;24919;1315;3026777;-59
2022/06/15 09:42:57;;;;;;;2.90;1.00;;;;;;;22.98;34.59;99352.71;25010;1315;3026411;-59
2022/06/15 09:45:29;;;;;;;4.80;1.00;;;;;;;23.12;34.44;99350.65;25125;1314;3054176;-58
2022/06/15 09:48:20;;;;;;;4.70;1.50;;;;;;;22.96;34.52;99357.08;25077;1317;3026814;-63
2022/06/15 09:50:56;;;;;;;4.80;1.10;;;;;;;22.79;34.63;99351.59;25045;1317;3071407;-60
2022/06/15 09:53:44;;;;;;;2.80;1.20;;;;;;;22.98;34.60;99349.25;25041;1317;3052304;-59
2022/06/15 09:56:14;;;;;;;11.80;3.10;;;;;;;23.00;34.23;99351.14;25117;1315;3054861;-61
2022/06/15 09:58:54;;;;;;;8.20;4.00;;;;;;;22.67;33.65;99360.08;25190;1315;3026791;-60
2022/06/15 10:01:25;;;;;;;4.20;1.70;;;;;;;22.43;34.01;99352.34;25198;1315;3058938;-61
2022/06/15 10:03:55;;;;;;;3.70;1.60;;;;;;;22.25;34.11;99352.94;25162;1314;3028348;-58
2022/06/15 10:06:42;;;;;;;6.90;1.50;;;;;;;22.51;34.05;99354.16;25217;1314;3026296;-62
2022/06/15 10:09:18;;;;;;;5.00;1.50;;;;;;;22.42;34.07;99359.28;25101;1314;3054189;-61
2022/06/15 10:11:52;;;;;;;2.00;1.10;;;;;;;22.64;33.71;99351.96;25064;1314;3069633;-60
2022/06/15 10:14:32;;;;;;;3.30;0.80;;;;;;;22.90;33.42;99344.80;25156;1315;3026764;-59
2022/06/15 10:17:05;;;;;;;6.40;1.00;;;;;;;23.39;33.16;99346.67;25169;1316;3052165;-63
2022/06/15 10:19:34;;;;;;;3.90;0.90;;;;;;;23.68;32.35;99334.15;25079;1316;3026522;-59
2022/06/15 10:22:08;;;;;;;3.70;1.40;;;;;;;23.66;31.94;99339.06;25154;1317;3026945;-61
2022/06/15 10:24:39;;;;;;;6.80;1.20;;;;;;;23.68;31.77;99337.88;25070;1314;3048598;-63
2022/06/15 10:27:18;;;;;;;2.80;0.90;;;;;;;23.88;31.71;99335.25;25143;1318;3026537;-63
2022/06/15 10:30:06;;;;;;;4.20;1.10;;;;;;;24.17;31.03;99335.02;25059;1316;3050466;-59
2022/06/15 10:32:36;;;;;;;2.40;0.90;;;;;;;24.13;31.09;99327.46;25064;1315;3071632;-60
2022/06/15 10:35:18;;;;;;;6.50;1.30;;;;;;;24.05;30.75;99327.35;25121;1315;3026666;-61
2022/06/15 10:37:52;;;;;;;4.50;1.00;;;;;;;23.98;30.49;99324.39;25118;1314;3054731;-59
2022/06/15 10:40:31;;;;;;;2.80;1.30;;;;;;;24.30;30.40;99319.44;25126;1314;3054808;-59
2022/06/15 10:43:06;;;;;;;4.10;1.10;;;;;;;24.52;30.13;99312.91;25052;1315;3057955;-61
2022/06/15 10:45:37;;;;;;;6.60;1.30;;;;;;;24.60;29.83;99310.26;25099;1314;3050360;-61
2022/06/15 10:48:31;;;;;;;5.70;1.10;;;;;;;24.55;29.83;99318.25;25143;1317;3029673;-60
2022/06/15 10:51:05;;;;;;;;;;;;;;;24.49;29.76;99311.30;25132;1317;3051530;-62
2022/06/15 10:53:34;;;;;;;;;;;;;;;24.18;29.10;99313.91;25088;1316;3068060;-62
2022/06/15 11:02:23;;;;;;;8.00;1.20;;;;;;;24.18;29.38;99314.25;25212;1314;3070818;-60
2022/06/15 11:04:56;;;;;;;4.50;0.90;;;;;;;24.58;28.93;99311.70;24945;1318;3052315;-60
2022/06/15 11:07:55;;;;;;;7.50;1.00;;;;;;;24.60;28.83;99313.02;25047;1314;3053556;-60
2022/06/15 11:10:34;;;;;;;3.80;1.00;;;;;;;24.66;29.00;99306.36;25024;1318;3055691;-62
2022/06/15 11:13:04;;;;;;;8.30;1.30;;;;;;;24.94;28.98;99308.92;25098;1314;3056857;-62
2022/06/15 11:18:39;;;;;;;5.80;1.00;;;;;;;25.20;28.11;99305.00;25105;1314;3056109;-61
2022/06/15 11:21:18;;;;;;;2.90;1.00;;;;;;;24.69;28.80;99306.42;25080;1314;3051031;-61
2022/06/15 11:24:10;;;;;;;3.40;0.80;;;;;;;24.66;28.40;99305.55;25049;1315;3071887;-60
2022/06/15 11:27:01;;;;;;;5.10;1.00;;;;;;;24.73;28.34;99298.52;24946;1317;3049995;-62
2022/06/15 11:30:26;;;;;;;4.30;1.00;;;;;;;25.11;27.58;99295.30;25106;1314;3052556;-62
2022/06/15 11:32:59;;;;;;;8.80;1.20;;;;;;;25.24;27.46;99293.88;24785;1323;3054020;-63
2022/06/15 11:35:39;;;;;;;4.10;1.30;;;;;;;25.42;27.75;99291.12;25031;1317;3055175;-61
2022/06/15 11:38:27;;;;;;;5.40;0.90;;;;;;;25.48;27.52;99290.92;24979;1317;3050175;-61
2022/06/15 11:41:00;;;;;;;7.20;1.10;;;;;;;25.47;27.86;99282.96;25233;1314;3055490;-61
2022/06/15 11:43:34;;;;;;;5.10;1.30;;;;;;;25.26;27.50;99298.61;25047;1314;3050901;-61
2022/06/15 11:46:09;;;;;;;5.00;0.90;;;;;;;25.50;27.36;99285.73;25085;1314;3068338;-61
2022/06/15 11:48:44;;;;;;;4.50;1.00;;;;;;;25.79;27.35;99289.63;25080;1317;3048163;-61
2022/06/15 11:51:48;;;;;;;4.10;0.90;;;;;;;25.95;26.68;99279.20;25130;1314;3054091;-62
2022/06/15 11:54:32;;;;;;;9.20;1.30;;;;;;;25.98;26.65;99286.94;25080;1314;3055372;-58
2022/06/15 11:57:04;;;;;;;;;;;;;;;25.87;26.29;99284.42;25104;1314;3055970;-59
2022/06/15 11:59:33;;;;;;;3.60;1.20;;;;;;;25.55;26.19;99281.23;25064;1316;3026755;-59
2022/06/15 12:02:08;;;;;;;3.00;1.00;;;;;;;25.77;26.37;99289.86;25143;1316;3026850;-59
2022/06/15 12:05:04;;;;;;;5.60;1.10;;;;;;;25.67;26.36;99286.30;25055;1316;3051798;-62
2022/06/15 12:08:07;;;;;;;4.50;1.00;;;;;;;25.74;26.16;99286.56;25197;1314;3068180;-61
2022/06/15 12:10:50;;;;;;;1.80;0.90;;;;;;;24.92;26.94;99289.55;25129;1317;3048995;-59